createdAt,value
2023-05-06T00:02:04.505Z,94242.69
2023-05-06T00:04:31.288Z,94242.97
2023-05-06T00:06:58.044Z,94239.69
2023-05-06T00:09:24.810Z,94251.41
2023-05-06T00:11:51.573Z,94258.06
2023-05-06T00:14:18.277Z,94255.75
2023-05-06T00:16:45.254Z,94251.91
2023-05-06T00:19:12.360Z,94247.06
2023-05-06T00:21:39.068Z,94250.16
2023-05-06T00:24:06.226Z,94249.81
2023-05-06T00:26:32.913Z,94245.94
2023-05-06T00:28:59.601Z,94245.88
2023-05-06T00:31:26.311Z,94246.94
2023-05-06T00:33:53.036Z,94243.19
2023-05-06T00:36:19.748Z,94242.59
2023-05-06T00:38:47.534Z,94242.00
2023-05-06T00:41:14.202Z,94239.88
2023-05-06T00:43:41.088Z,94236.44
2023-05-06T00:46:10.074Z,94235.75
2023-05-06T00:48:37.467Z,94233.34
2023-05-06T00:51:04.559Z,94232.69
2023-05-06T00:53:31.325Z,94235.88
2023-05-06T00:55:57.997Z,94233.25
2023-05-06T00:58:24.694Z,94233.19
2023-05-06T01:00:52.445Z,94232.63
2023-05-06T01:03:19.380Z,94229.00
2023-05-06T01:06:24.849Z,94227.50
2023-05-06T01:09:06.169Z,94230.88
2023-05-06T01:11:41.432Z,94231.97
2023-05-06T01:14:10.867Z,94232.63
2023-05-06T01:16:40.825Z,94229.53
2023-05-06T01:19:10.491Z,94224.31
2023-05-06T01:21:41.631Z,94229.00
2023-05-06T01:24:08.325Z,94228.31
2023-05-06T01:26:34.900Z,94226.31
2023-05-06T01:29:03.414Z,94228.16
2023-05-06T01:31:38.926Z,94219.09
2023-05-06T01:34:45.500Z,94226.16
2023-05-06T01:37:40.664Z,94230.22
2023-05-06T01:40:08.532Z,94227.03
2023-05-06T01:42:36.462Z,94229.69
2023-05-06T01:45:07.197Z,94227.56
2023-05-06T01:47:35.434Z,94226.31
2023-05-06T01:50:03.242Z,94225.06
2023-05-06T01:52:29.890Z,94219.00
2023-05-06T01:54:56.475Z,94219.16
2023-05-06T01:57:23.122Z,94224.94
2023-05-06T01:59:49.761Z,94223.94
2023-05-06T02:02:16.615Z,94226.44
2023-05-06T02:04:43.381Z,94215.00
2023-05-06T02:07:10.013Z,94222.25
2023-05-06T02:09:36.832Z,94218.28
2023-05-06T02:12:03.669Z,94218.59
2023-05-06T02:14:30.544Z,94210.50
2023-05-06T02:16:57.148Z,94203.59
2023-05-06T02:19:23.776Z,94202.66
2023-05-06T02:21:50.521Z,94210.81
2023-05-06T02:24:17.185Z,94217.47
2023-05-06T02:26:43.788Z,94206.00
2023-05-06T02:29:10.732Z,94220.84
2023-05-06T02:31:37.484Z,94219.38
2023-05-06T02:34:05.277Z,94220.16
2023-05-06T02:36:32.502Z,94227.97
2023-05-06T02:38:59.167Z,94226.75
2023-05-06T02:41:25.783Z,94223.53
2023-05-06T02:43:52.441Z,94218.31
2023-05-06T02:46:19.105Z,94225.00
2023-05-06T02:48:46.384Z,94220.00
2023-05-06T02:51:13.146Z,94216.44
2023-05-06T02:53:39.783Z,94220.66
2023-05-06T02:56:06.745Z,94219.47
2023-05-06T02:58:33.477Z,94228.06
2023-05-06T03:01:00.233Z,94225.25
2023-05-06T03:03:26.876Z,94238.84
2023-05-06T03:05:53.542Z,94226.31
2023-05-06T03:08:20.259Z,94225.03
2023-05-06T03:10:46.891Z,94229.44
2023-05-06T03:13:13.571Z,94230.22
2023-05-06T03:15:41.512Z,94226.38
2023-05-06T03:18:08.135Z,94233.63
2023-05-06T03:20:34.782Z,94233.22
2023-05-06T03:23:02.050Z,94235.66
2023-05-06T03:25:28.614Z,94232.56
2023-05-06T03:27:55.219Z,94240.63
2023-05-06T03:30:21.819Z,94249.94
2023-05-06T03:32:48.974Z,94247.47
2023-05-06T03:35:16.576Z,94254.81
2023-05-06T03:37:43.176Z,94264.13
2023-05-06T03:40:09.986Z,94252.75
2023-05-06T03:42:36.554Z,94247.72
2023-05-06T03:45:03.840Z,94252.19
2023-05-06T03:47:30.513Z,94253.88
2023-05-06T03:49:57.113Z,94252.41
2023-05-06T03:52:24.984Z,94252.34
2023-05-06T03:54:51.582Z,94256.25
2023-05-06T03:57:18.219Z,94264.06
2023-05-06T03:59:44.823Z,94260.34
2023-05-06T04:02:11.496Z,94268.38
2023-05-06T04:04:38.167Z,94269.28
2023-05-06T04:07:04.799Z,94259.09
2023-05-06T04:09:34.193Z,94266.41
2023-05-06T04:12:03.503Z,94271.19
2023-05-06T04:14:31.763Z,94281.06
2023-05-06T04:16:58.489Z,94276.44
2023-05-06T04:19:25.122Z,94274.50
2023-05-06T04:21:51.839Z,94278.72
2023-05-06T04:24:18.616Z,94278.38
2023-05-06T04:26:45.224Z,94277.28
2023-05-06T04:29:11.910Z,94269.72
2023-05-06T04:31:38.739Z,94266.59
2023-05-06T04:34:05.409Z,94280.97
2023-05-06T04:36:31.998Z,94285.84
2023-05-06T04:38:58.653Z,94283.34
2023-05-06T04:41:26.085Z,94282.25
2023-05-06T04:43:52.874Z,94279.22
2023-05-06T04:46:19.584Z,94285.66
2023-05-06T04:48:46.297Z,94277.59
2023-05-06T04:51:13.300Z,94289.00
2023-05-06T04:53:40.850Z,94293.03
2023-05-06T04:56:08.262Z,94288.00
2023-05-06T04:58:34.907Z,94299.28
2023-05-06T05:01:04.670Z,94305.53
2023-05-06T05:03:31.960Z,94296.50
2023-05-06T05:05:58.762Z,94305.94
2023-05-06T05:08:25.645Z,94300.41
2023-05-06T05:10:52.307Z,94302.34
2023-05-06T05:13:19.719Z,94298.63
2023-05-06T05:15:46.418Z,94306.91
2023-05-06T05:18:13.023Z,94303.97
2023-05-06T05:20:39.705Z,94314.69
2023-05-06T05:23:06.868Z,94318.81
2023-05-06T05:25:33.539Z,94312.38
2023-05-06T05:28:00.219Z,94307.53
2023-05-06T05:30:26.905Z,94313.34
2023-05-06T05:32:53.612Z,94307.41
2023-05-06T05:35:20.793Z,94307.91
2023-05-06T05:37:47.422Z,94312.34
2023-05-06T05:40:14.385Z,94301.38
2023-05-06T05:42:41.203Z,94302.91
2023-05-06T05:45:08.547Z,94305.56
2023-05-06T05:47:35.486Z,94306.84
2023-05-06T05:50:03.083Z,94309.63
2023-05-06T05:52:29.730Z,94302.91
2023-05-06T05:54:56.415Z,94296.84
2023-05-06T05:57:23.159Z,94304.31
2023-05-06T05:59:49.790Z,94301.06
2023-05-06T06:02:16.504Z,94313.06
2023-05-06T06:04:43.155Z,94311.94
2023-05-06T06:07:10.168Z,94311.75
2023-05-06T06:09:36.864Z,94316.06
2023-05-06T06:12:03.972Z,94323.50
2023-05-06T06:14:30.672Z,94318.69
2023-05-06T06:16:57.312Z,94318.47
2023-05-06T06:19:24.221Z,94311.16
2023-05-06T06:21:50.860Z,94319.16
2023-05-06T06:24:17.556Z,94314.47
2023-05-06T06:26:44.157Z,94314.56
2023-05-06T06:29:10.861Z,94314.78
2023-05-06T06:31:39.727Z,94321.38
2023-05-06T06:34:09.016Z,94325.53
2023-05-06T06:36:35.748Z,94327.59
2023-05-06T06:39:02.356Z,94313.59
2023-05-06T06:41:28.986Z,94318.25
2023-05-06T06:43:55.889Z,94318.75
2023-05-06T06:46:22.622Z,94322.72
2023-05-06T06:48:49.293Z,94331.41
2023-05-06T06:51:18.611Z,94327.19
2023-05-06T06:53:48.311Z,94330.75
2023-05-06T06:56:16.045Z,94332.72
2023-05-06T06:58:42.744Z,94333.19
2023-05-06T07:01:10.200Z,94339.22
2023-05-06T07:03:37.095Z,94334.66
2023-05-06T07:06:04.088Z,94344.78
2023-05-06T07:08:30.782Z,94340.19
2023-05-06T07:10:57.439Z,94341.59
2023-05-06T07:13:24.439Z,94342.53
2023-05-06T07:15:51.123Z,94342.31
2023-05-06T07:18:17.785Z,94352.44
2023-05-06T07:20:44.389Z,94346.00
2023-05-06T07:23:11.263Z,94347.22
2023-05-06T07:25:38.030Z,94348.69
2023-05-06T07:28:05.177Z,94348.91
2023-05-06T07:30:31.887Z,94354.66
2023-05-06T07:32:58.645Z,94352.69
2023-05-06T07:35:25.667Z,94354.91
2023-05-06T07:37:52.732Z,94348.63
2023-05-06T07:40:19.366Z,94353.56
2023-05-06T07:42:45.996Z,94349.13
2023-05-06T07:45:12.918Z,94348.13
2023-05-06T07:47:40.102Z,94341.06
2023-05-06T07:50:07.936Z,94339.91
2023-05-06T07:52:34.662Z,94340.69
2023-05-06T07:55:02.126Z,94341.94
2023-05-06T07:57:28.865Z,94345.53
2023-05-06T07:59:55.549Z,94343.84
2023-05-06T08:02:22.392Z,94343.19
2023-05-06T08:04:51.511Z,94338.44
2023-05-06T08:07:18.669Z,94335.53
2023-05-06T08:09:45.408Z,94342.63
2023-05-06T08:12:12.042Z,94347.59
2023-05-06T08:14:38.678Z,94346.00
2023-05-06T08:17:05.316Z,94347.66
2023-05-06T08:19:32.090Z,94352.94
2023-05-06T08:21:58.811Z,94352.91
2023-05-06T08:24:25.695Z,94351.06
2023-05-06T08:26:52.505Z,94355.09
2023-05-06T08:29:19.403Z,94352.47
2023-05-06T08:31:46.827Z,94351.00
2023-05-06T08:34:13.564Z,94352.41
2023-05-06T08:36:40.198Z,94349.72
2023-05-06T08:39:06.896Z,94352.53
2023-05-06T08:41:35.839Z,94354.34
2023-05-06T08:44:03.686Z,94359.63
2023-05-06T08:46:31.121Z,94354.81
2023-05-06T08:48:59.123Z,94355.97
2023-05-06T08:51:32.774Z,94352.34
2023-05-06T08:54:04.087Z,94345.97
2023-05-06T08:56:34.792Z,94351.47
2023-05-06T08:59:02.552Z,94346.91
2023-05-06T09:01:29.398Z,94344.53
2023-05-06T09:03:58.349Z,94341.22
2023-05-06T09:06:25.306Z,94343.63
2023-05-06T09:08:52.049Z,94334.78
2023-05-06T09:11:29.844Z,94340.81
2023-05-06T09:14:17.649Z,94330.88
2023-05-06T09:16:46.876Z,94329.00
2023-05-06T09:19:14.173Z,94327.31
2023-05-06T09:21:46.150Z,94329.38
2023-05-06T09:24:14.342Z,94325.50
2023-05-06T09:26:43.089Z,94306.19
2023-05-06T09:29:10.214Z,94315.84
2023-05-06T09:31:45.661Z,94317.41
2023-05-06T09:34:12.894Z,94307.72
2023-05-06T09:36:39.855Z,94303.88
2023-05-06T09:39:07.470Z,94299.56
2023-05-06T09:41:34.157Z,94307.53
2023-05-06T09:44:01.465Z,94295.72
2023-05-06T09:46:28.307Z,94304.50
2023-05-06T09:48:58.279Z,94308.22
2023-05-06T09:51:27.818Z,94298.47
2023-05-06T09:53:57.056Z,94301.59
2023-05-06T09:56:24.954Z,94289.91
2023-05-06T09:58:54.574Z,94288.41
2023-05-06T10:01:35.528Z,94288.63
2023-05-06T10:04:08.716Z,94292.53
2023-05-06T10:06:36.917Z,94278.56
2023-05-06T10:09:06.246Z,94294.41
2023-05-06T10:11:33.493Z,94292.63
2023-05-06T10:14:02.116Z,94281.28
2023-05-06T10:16:29.646Z,94283.94
2023-05-06T10:18:57.550Z,94269.94
2023-05-06T10:21:27.795Z,94271.91
2023-05-06T10:24:01.790Z,94277.03
2023-05-06T10:26:31.589Z,94281.19
2023-05-06T10:29:02.962Z,94288.63
2023-05-06T10:31:30.914Z,94282.19
2023-05-06T10:34:03.050Z,94288.88
2023-05-06T10:36:32.177Z,94282.19
2023-05-06T10:39:00.854Z,94290.31
2023-05-06T10:41:29.399Z,94286.06
2023-05-06T10:43:57.627Z,94280.81
2023-05-06T10:46:29.200Z,94276.09
2023-05-06T10:49:04.925Z,94282.75
2023-05-06T10:51:38.132Z,94279.41
2023-05-06T10:54:30.905Z,94271.09
2023-05-06T10:56:58.275Z,94278.03
2023-05-06T10:59:26.516Z,94276.31
2023-05-06T11:01:57.546Z,94273.09
2023-05-06T11:04:24.343Z,94270.06
2023-05-06T11:06:52.949Z,94271.22
2023-05-06T11:09:24.451Z,94269.22
2023-05-06T11:12:00.493Z,94268.59
2023-05-06T11:14:29.685Z,94274.16
2023-05-06T11:16:58.705Z,94278.22
2023-05-06T11:19:27.363Z,94273.13
2023-05-06T11:21:57.595Z,94265.34
2023-05-06T11:24:29.471Z,94272.06
2023-05-06T11:26:58.409Z,94266.94
2023-05-06T11:29:25.553Z,94263.13
2023-05-06T11:31:54.207Z,94269.56
2023-05-06T11:34:23.583Z,94265.63
2023-05-06T11:36:54.288Z,94267.91
2023-05-06T11:39:21.152Z,94271.28
2023-05-06T11:41:47.905Z,94267.16
2023-05-06T11:44:24.623Z,94268.41
2023-05-06T11:46:51.507Z,94270.09
2023-05-06T11:49:18.236Z,94261.94
2023-05-06T11:51:46.052Z,94273.59
2023-05-06T11:54:15.018Z,94271.41
2023-05-06T11:56:59.569Z,94268.03
2023-05-06T11:59:30.528Z,94264.63
2023-05-06T12:02:02.419Z,94266.97
2023-05-06T12:04:37.898Z,94267.56
2023-05-06T12:07:07.665Z,94269.13
2023-05-06T12:09:36.072Z,94260.72
2023-05-06T12:12:04.620Z,94261.47
2023-05-06T12:14:32.111Z,94257.94
2023-05-06T12:16:58.913Z,94250.56
2023-05-06T12:19:26.633Z,94257.69
2023-05-06T12:21:53.337Z,94255.34
2023-05-06T12:24:30.013Z,94253.28
2023-05-06T12:26:56.856Z,94249.09
2023-05-06T12:29:23.567Z,94250.59
2023-05-06T12:31:50.229Z,94245.88
2023-05-06T12:34:18.576Z,94234.94
2023-05-06T12:36:46.951Z,94239.25
2023-05-06T12:39:14.517Z,94237.66
2023-05-06T12:41:43.424Z,94234.16
2023-05-06T12:44:36.372Z,94239.16
2023-05-06T12:47:19.458Z,94240.38
2023-05-06T12:49:59.383Z,94239.38
2023-05-06T12:52:28.600Z,94238.56
2023-05-06T12:54:56.394Z,94237.38
2023-05-06T12:57:23.291Z,94235.94
2023-05-06T12:59:50.719Z,94232.19
2023-05-06T13:02:17.694Z,94241.00
2023-05-06T13:04:46.762Z,94238.53
2023-05-06T13:07:13.451Z,94238.13
2023-05-06T13:09:40.083Z,94238.47
2023-05-06T13:12:07.325Z,94235.19
2023-05-06T13:14:34.015Z,94236.25
2023-05-06T13:17:01.368Z,94230.81
2023-05-06T13:19:33.029Z,94230.97
2023-05-06T13:22:00.929Z,94221.94
2023-05-06T13:24:28.117Z,94222.72
2023-05-06T13:26:56.405Z,94226.63
2023-05-06T13:29:23.904Z,94219.69
2023-05-06T13:31:51.629Z,94219.31
2023-05-06T13:34:18.882Z,94226.50
2023-05-06T13:36:46.769Z,94214.88
2023-05-06T13:39:13.433Z,94224.00
2023-05-06T13:41:40.102Z,94223.47
2023-05-06T13:44:06.705Z,94221.03
2023-05-06T13:46:33.411Z,94225.69
2023-05-06T13:49:00.142Z,94232.75
2023-05-06T13:51:29.971Z,94228.16
2023-05-06T13:53:56.673Z,94218.16
2023-05-06T13:56:23.305Z,94218.13
2023-05-06T13:58:50.007Z,94220.50
2023-05-06T14:01:16.681Z,94226.56
2023-05-06T14:03:43.309Z,94213.88
2023-05-06T14:06:09.981Z,94221.22
2023-05-06T14:08:36.664Z,94218.91
2023-05-06T14:11:03.474Z,94210.16
2023-05-06T14:13:31.561Z,94217.94
2023-05-06T14:15:58.680Z,94219.09
2023-05-06T14:18:28.985Z,94214.97
2023-05-06T14:20:56.318Z,94215.16
2023-05-06T14:23:22.925Z,94219.75
2023-05-06T14:25:49.709Z,94213.44
2023-05-06T14:28:16.679Z,94218.69
2023-05-06T14:30:43.391Z,94218.50
2023-05-06T14:33:10.437Z,94214.75
2023-05-06T14:35:41.240Z,94212.19
2023-05-06T14:38:08.311Z,94228.25
2023-05-06T14:40:36.913Z,94220.56
2023-05-06T14:43:04.204Z,94215.97
2023-05-06T14:45:31.152Z,94226.28
2023-05-06T14:47:58.103Z,94226.34
2023-05-06T14:50:24.808Z,94226.72
2023-05-06T14:52:51.476Z,94225.66
2023-05-06T14:55:18.397Z,94224.81
2023-05-06T14:57:45.078Z,94226.94
2023-05-06T15:00:12.814Z,94224.66
2023-05-06T15:02:40.822Z,94223.34
2023-05-06T15:05:12.260Z,94234.91
2023-05-06T15:07:39.333Z,94222.75
2023-05-06T15:10:06.233Z,94222.81
2023-05-06T15:12:33.591Z,94228.22
2023-05-06T15:15:00.265Z,94227.06
2023-05-06T15:17:27.072Z,94226.56
2023-05-06T15:19:53.912Z,94224.31
2023-05-06T15:22:20.528Z,94220.56
2023-05-06T15:24:47.255Z,94226.56
2023-05-06T15:27:15.206Z,94227.59
2023-05-06T15:29:41.823Z,94228.47
2023-05-06T15:32:08.649Z,94221.97
2023-05-06T15:34:35.362Z,94226.63
2023-05-06T15:37:02.216Z,94227.75
2023-05-06T15:39:29.049Z,94224.66
2023-05-06T15:41:58.347Z,94225.84
2023-05-06T15:46:53.270Z,94224.66
2023-05-06T15:49:47.396Z,94226.34
2023-05-06T15:52:06.577Z,94222.81
2023-05-06T15:54:34.792Z,94217.75
2023-05-06T15:57:07.270Z,94223.53
2023-05-06T15:59:33.987Z,94223.53
2023-05-06T16:02:26.414Z,94223.56
2023-05-06T16:04:47.757Z,94218.34
2023-05-06T16:07:15.223Z,94210.22
2023-05-06T16:09:42.865Z,94217.41
2023-05-06T16:12:10.180Z,94217.69
2023-05-06T16:14:36.845Z,94222.13
2023-05-06T16:17:03.600Z,94213.69
2023-05-06T16:19:35.067Z,94219.38
2023-05-06T16:22:02.510Z,94221.50
2023-05-06T16:24:29.140Z,94221.28
2023-05-06T16:26:56.256Z,94215.34
2023-05-06T16:29:23.036Z,94230.09
2023-05-06T16:31:49.824Z,94223.16
2023-05-06T16:34:16.588Z,94213.97
2023-05-06T16:36:43.715Z,94212.22
2023-05-06T16:39:10.350Z,94217.66
2023-05-06T16:41:36.924Z,94215.25
2023-05-06T16:44:03.618Z,94225.38
2023-05-06T16:46:30.394Z,94220.97
2023-05-06T16:48:57.052Z,94229.84
2023-05-06T16:51:24.229Z,94229.50
2023-05-06T16:53:51.080Z,94228.81
2023-05-06T16:56:17.963Z,94237.94
2023-05-06T16:58:44.597Z,94234.09
2023-05-06T17:01:11.821Z,94228.75
2023-05-06T17:03:38.724Z,94232.53
2023-05-06T17:06:05.710Z,94237.13
2023-05-06T17:08:36.149Z,94236.63
2023-05-06T17:11:06.790Z,94239.44
2023-05-06T17:13:34.045Z,94239.16
2023-05-06T17:16:00.936Z,94241.28
2023-05-06T17:18:27.724Z,94236.22
2023-05-06T17:20:56.476Z,94240.88
2023-05-06T17:23:23.997Z,94238.97
2023-05-06T17:25:51.074Z,94234.72
2023-05-06T17:28:18.910Z,94238.88
2023-05-06T17:30:45.997Z,94235.19
2023-05-06T17:33:12.962Z,94243.28
2023-05-06T17:35:39.718Z,94239.41
2023-05-06T17:38:06.456Z,94248.66
2023-05-06T17:40:33.173Z,94251.34
2023-05-06T17:42:59.799Z,94252.50
2023-05-06T17:45:28.469Z,94255.69
2023-05-06T17:47:56.505Z,94254.97
2023-05-06T17:50:23.302Z,94253.81
2023-05-06T17:52:52.354Z,94273.63
2023-05-06T17:55:21.509Z,94272.84
2023-05-06T17:57:48.756Z,94277.53
2023-05-06T18:00:16.629Z,94275.63
2023-05-06T18:02:44.049Z,94285.25
2023-05-06T18:05:11.623Z,94284.44
2023-05-06T18:07:38.625Z,94285.63
2023-05-06T18:10:06.084Z,94288.34
2023-05-06T18:12:32.769Z,94298.44
2023-05-06T18:15:00.374Z,94296.09
2023-05-06T18:17:27.074Z,94299.19
2023-05-06T18:19:53.756Z,94298.44
2023-05-06T18:22:20.363Z,94299.16
2023-05-06T18:24:46.983Z,94293.78
2023-05-06T18:27:13.592Z,94295.31
2023-05-06T18:29:41.436Z,94295.72
2023-05-06T18:32:08.374Z,94294.94
2023-05-06T18:34:35.378Z,94298.09
2023-05-06T18:37:02.164Z,94304.63
2023-05-06T18:39:28.838Z,94304.63
2023-05-06T18:41:55.464Z,94303.06
2023-05-06T18:44:22.026Z,94298.44
2023-05-06T18:46:48.777Z,94295.75
2023-05-06T18:49:15.474Z,94299.63
2023-05-06T18:51:42.082Z,94299.22
2023-05-06T18:54:08.748Z,94301.94
2023-05-06T18:56:36.897Z,94305.03
2023-05-06T18:59:03.593Z,94304.25
2023-05-06T19:01:30.556Z,94314.69
2023-05-06T19:03:57.640Z,94317.81
2023-05-06T19:06:24.302Z,94318.56
2023-05-06T19:08:51.040Z,94318.56
2023-05-06T19:11:21.278Z,94322.44
2023-05-06T19:13:47.981Z,94323.97
2023-05-06T19:16:14.713Z,94318.56
2023-05-06T19:18:41.596Z,94320.88
2023-05-06T19:21:15.030Z,94315.47
2023-05-06T19:23:42.030Z,94310.81
2023-05-06T19:26:11.227Z,94318.13
2023-05-06T19:28:39.444Z,94322.34
2023-05-06T19:31:07.971Z,94315.44
2023-05-06T19:33:34.764Z,94321.63
2023-05-06T19:36:02.182Z,94315.44
2023-05-06T19:38:29.104Z,94327.81
2023-05-06T19:40:56.416Z,94322.03
2023-05-06T19:43:23.587Z,94324.75
2023-05-06T19:45:50.534Z,94327.03
2023-05-06T19:48:18.003Z,94320.09
2023-05-06T19:50:44.722Z,94324.38
2023-05-06T19:53:11.543Z,94316.63
2023-05-06T19:55:38.147Z,94318.97
2023-05-06T19:58:04.900Z,94320.09
2023-05-06T20:00:31.524Z,94320.47
2023-05-06T20:02:59.530Z,94323.19
2023-05-06T20:05:32.253Z,94322.41
2023-05-06T20:08:02.314Z,94335.50
2023-05-06T20:10:29.710Z,94331.56
2023-05-06T20:12:58.831Z,94325.78
2023-05-06T20:15:26.638Z,94334.72
2023-05-06T20:17:53.389Z,94329.25
2023-05-06T20:20:20.198Z,94334.75
2023-05-06T20:22:46.810Z,94337.06
2023-05-06T20:25:16.303Z,94330.00
2023-05-06T20:27:46.441Z,94331.63
2023-05-06T20:30:13.297Z,94337.06
2023-05-06T20:32:40.712Z,94335.50
2023-05-06T20:35:07.852Z,94339.41
2023-05-06T20:37:35.448Z,94332.44
2023-05-06T20:40:04.919Z,94340.56
2023-05-06T20:42:31.893Z,94342.88
2023-05-06T20:44:59.165Z,94336.31
2023-05-06T20:47:26.265Z,94339.00
2023-05-06T20:49:53.027Z,94332.44
2023-05-06T20:52:21.481Z,94344.78
2023-05-06T20:54:48.493Z,94341.22
2023-05-06T20:57:16.488Z,94347.41
2023-05-06T20:59:43.296Z,94345.03
2023-05-06T21:02:10.379Z,94348.94
2023-05-06T21:04:37.288Z,94350.16
2023-05-06T21:07:03.923Z,94352.09
2023-05-06T21:09:30.634Z,94353.63
2023-05-06T21:11:58.492Z,94347.44
2023-05-06T21:14:26.585Z,94346.22
2023-05-06T21:16:53.811Z,94345.09
2023-05-06T21:19:21.077Z,94352.31
2023-05-06T21:21:48.344Z,94345.78
2023-05-06T21:24:15.392Z,94344.63
2023-05-06T21:26:42.143Z,94337.66
2023-05-06T21:29:08.789Z,94343.06
2023-05-06T21:31:35.560Z,94334.84
2023-05-06T21:34:03.539Z,94337.09
2023-05-06T21:36:30.269Z,94336.22
2023-05-06T21:39:11.955Z,94335.94
2023-05-06T21:41:39.268Z,94336.34
2023-05-06T21:44:07.656Z,94333.34
2023-05-06T21:46:34.961Z,94333.69
2023-05-06T21:49:01.935Z,94332.22
2023-05-06T21:51:32.320Z,94333.84
2023-05-06T21:53:59.171Z,94333.72
2023-05-06T21:56:25.963Z,94341.13
2023-05-06T21:58:54.666Z,94337.25
2023-05-06T22:01:22.184Z,94335.41
2023-05-06T22:03:49.078Z,94336.19
2023-05-06T22:06:16.023Z,94340.81
2023-05-06T22:08:42.731Z,94342.34
2023-05-06T22:11:09.498Z,94345.03
2023-05-06T22:13:36.297Z,94331.16
2023-05-06T22:16:04.144Z,94333.88
2023-05-06T22:18:32.164Z,94332.31
2023-05-06T22:20:59.946Z,94330.03
2023-05-06T22:23:28.068Z,94326.94
2023-05-06T22:25:54.770Z,94331.16
2023-05-06T22:28:21.759Z,94326.50
2023-05-06T22:30:48.531Z,94337.69
2023-05-06T22:33:15.173Z,94331.16
2023-05-06T22:35:41.866Z,94334.63
2023-05-06T22:38:08.944Z,94333.06
2023-05-06T22:40:35.615Z,94337.59
2023-05-06T22:43:02.250Z,94334.47
2023-05-06T22:45:28.886Z,94323.72
2023-05-06T22:47:56.012Z,94333.72
2023-05-06T22:50:22.774Z,94326.06
2023-05-06T22:52:49.380Z,94334.13
2023-05-06T22:55:16.253Z,94333.38
2023-05-06T22:57:42.938Z,94331.81
2023-05-06T23:00:12.537Z,94323.75
2023-05-06T23:02:39.925Z,94326.06
2023-05-06T23:05:06.820Z,94328.19
2023-05-06T23:07:33.645Z,94325.94
2023-05-06T23:10:00.560Z,94323.66
2023-05-06T23:12:28.114Z,94324.13
2023-05-06T23:14:54.710Z,94332.13
2023-05-06T23:17:21.376Z,94329.09
2023-05-06T23:19:48.078Z,94327.50
2023-05-06T23:22:14.705Z,94327.13
2023-05-06T23:24:42.306Z,94328.28
2023-05-06T23:27:09.001Z,94320.53
2023-05-06T23:29:35.740Z,94323.19
2023-05-06T23:32:02.913Z,94319.16
2023-05-06T23:34:29.523Z,94320.34
2023-05-06T23:36:56.728Z,94322.66
2023-05-06T23:39:23.422Z,94320.72
2023-05-06T23:41:50.075Z,94328.00
2023-05-06T23:44:16.892Z,94324.13
2023-05-06T23:46:43.649Z,94321.59
2023-05-06T23:49:10.362Z,94327.13
2023-05-06T23:51:37.118Z,94326.31
2023-05-06T23:54:03.862Z,94329.28
2023-05-06T23:56:30.562Z,94337.44
2023-05-06T23:58:57.202Z,94333.50
